sensor_id;sensor_type;location;lat;lon;timestamp;P1;durP1;ratioP1;P2;durP2;ratioP2
21107;SDS011;10712;52.944;9.098;2023-11-21T00:01:02;15.15;;;8.40;;
21107;SDS011;10712;52.944;9.098;2023-11-21T00:03:29;16.52;;;9.50;;
21107;SDS011;10712;52.944;9.098;2023-11-21T00:05:56;15.07;;;10.07;;
21107;SDS011;10712;52.944;9.098;2023-11-21T00:08:22;20.52;;;11.05;;
21107;SDS011;10712;52.944;9.098;2023-11-21T00:10:48;22.52;;;11.60;;
21107;SDS011;10712;52.944;9.098;2023-11-21T00:13:14;25.38;;;11.63;;
21107;SDS011;10712;52.944;9.098;2023-11-21T00:15:39;21.83;;;11.40;;
21107;SDS011;10712;52.944;9.098;2023-11-21T00:18:05;23.05;;;12.05;;
21107;SDS011;10712;52.944;9.098;2023-11-21T00:20:31;21.30;;;11.63;;
21107;SDS011;10712;52.944;9.098;2023-11-21T00:22:57;25.95;;;13.00;;
21107;SDS011;10712;52.944;9.098;2023-11-21T00:25:24;21.60;;;11.85;;
21107;SDS011;10712;52.944;9.098;2023-11-21T00:27:50;18.35;;;10.85;;
21107;SDS011;10712;52.944;9.098;2023-11-21T00:30:16;25.13;;;12.23;;
21107;SDS011;10712;52.944;9.098;2023-11-21T00:32:42;21.40;;;12.18;;
21107;SDS011;10712;52.944;9.098;2023-11-21T00:35:08;18.40;;;11.32;;
21107;SDS011;10712;52.944;9.098;2023-11-21T00:37:34;16.48;;;9.95;;
21107;SDS011;10712;52.944;9.098;2023-11-21T00:40:00;20.70;;;12.15;;
21107;SDS011;10712;52.944;9.098;2023-11-21T00:42:30;22.05;;;10.90;;
21107;SDS011;10712;52.944;9.098;2023-11-21T00:44:59;20.48;;;11.88;;
21107;SDS011;10712;52.944;9.098;2023-11-21T00:47:25;23.95;;;11.27;;
21107;SDS011;10712;52.944;9.098;2023-11-21T00:49:51;14.57;;;10.55;;
21107;SDS011;10712;52.944;9.098;2023-11-21T00:52:18;15.65;;;10.38;;
21107;SDS011;10712;52.944;9.098;2023-11-21T00:54:43;22.27;;;10.88;;
21107;SDS011;10712;52.944;9.098;2023-11-21T00:57:09;23.70;;;13.35;;
21107;SDS011;10712;52.944;9.098;2023-11-21T00:59:37;17.00;;;10.45;;
21107;SDS011;10712;52.944;9.098;2023-11-21T01:02:02;14.60;;;9.98;;
21107;SDS011;10712;52.944;9.098;2023-11-21T01:04:30;20.80;;;10.70;;
21107;SDS011;10712;52.944;9.098;2023-11-21T01:06:59;24.60;;;11.80;;
21107;SDS011;10712;52.944;9.098;2023-11-21T01:09:24;19.85;;;11.35;;
21107;SDS011;10712;52.944;9.098;2023-11-21T01:11:51;18.45;;;10.60;;
21107;SDS011;10712;52.944;9.098;2023-11-21T01:14:17;34.13;;;12.65;;
21107;SDS011;10712;52.944;9.098;2023-11-21T01:16:43;20.08;;;10.50;;
21107;SDS011;10712;52.944;9.098;2023-11-21T01:19:08;16.30;;;10.75;;
21107;SDS011;10712;52.944;9.098;2023-11-21T01:21:34;22.23;;;10.45;;
21107;SDS011;10712;52.944;9.098;2023-11-21T01:24:00;21.63;;;11.82;;
21107;SDS011;10712;52.944;9.098;2023-11-21T01:26:26;19.10;;;11.52;;
21107;SDS011;10712;52.944;9.098;2023-11-21T01:28:52;22.13;;;10.85;;
21107;SDS011;10712;52.944;9.098;2023-11-21T01:31:17;23.75;;;11.10;;
21107;SDS011;10712;52.944;9.098;2023-11-21T01:33:45;29.00;;;10.93;;
21107;SDS011;10712;52.944;9.098;2023-11-21T01:36:11;20.70;;;10.23;;
21107;SDS011;10712;52.944;9.098;2023-11-21T01:38:37;19.80;;;11.75;;
21107;SDS011;10712;52.944;9.098;2023-11-21T01:41:03;24.75;;;10.93;;
21107;SDS011;10712;52.944;9.098;2023-11-21T01:43:31;27.77;;;12.75;;
21107;SDS011;10712;52.944;9.098;2023-11-21T01:45:57;25.95;;;13.63;;
21107;SDS011;10712;52.944;9.098;2023-11-21T01:48:24;24.00;;;13.20;;
21107;SDS011;10712;52.944;9.098;2023-11-21T01:50:51;23.17;;;12.30;;
21107;SDS011;10712;52.944;9.098;2023-11-21T01:53:17;16.17;;;10.63;;
21107;SDS011;10712;52.944;9.098;2023-11-21T01:55:43;24.00;;;13.77;;
21107;SDS011;10712;52.944;9.098;2023-11-21T01:58:11;27.77;;;14.55;;
21107;SDS011;10712;52.944;9.098;2023-11-21T02:00:41;22.17;;;14.40;;
21107;SDS011;10712;52.944;9.098;2023-11-21T02:03:08;30.73;;;15.25;;
21107;SDS011;10712;52.944;9.098;2023-11-21T02:05:35;33.05;;;16.35;;
21107;SDS011;10712;52.944;9.098;2023-11-21T02:08:01;23.65;;;13.57;;
21107;SDS011;10712;52.944;9.098;2023-11-21T02:10:28;25.65;;;14.60;;
21107;SDS011;10712;52.944;9.098;2023-11-21T02:12:57;22.98;;;13.75;;
21107;SDS011;10712;52.944;9.098;2023-11-21T02:15:23;24.60;;;13.90;;
21107;SDS011;10712;52.944;9.098;2023-11-21T02:17:53;31.38;;;15.60;;
21107;SDS011;10712;52.944;9.098;2023-11-21T02:20:23;39.65;;;17.42;;
21107;SDS011;10712;52.944;9.098;2023-11-21T02:22:53;32.35;;;16.85;;
21107;SDS011;10712;52.944;9.098;2023-11-21T02:25:27;36.95;;;17.55;;
21107;SDS011;10712;52.944;9.098;2023-11-21T02:28:01;28.40;;;17.33;;
21107;SDS011;10712;52.944;9.098;2023-11-21T02:30:29;27.65;;;18.08;;
21107;SDS011;10712;52.944;9.098;2023-11-21T02:32:59;34.13;;;17.00;;
21107;SDS011;10712;52.944;9.098;2023-11-21T02:35:28;33.03;;;17.48;;
21107;SDS011;10712;52.944;9.098;2023-11-21T02:37:57;36.58;;;17.35;;
21107;SDS011;10712;52.944;9.098;2023-11-21T02:40:23;36.13;;;16.65;;
21107;SDS011;10712;52.944;9.098;2023-11-21T02:42:51;27.70;;;17.42;;
21107;SDS011;10712;52.944;9.098;2023-11-21T02:45:18;34.40;;;18.42;;
21107;SDS011;10712;52.944;9.098;2023-11-21T02:47:46;28.52;;;18.42;;
21107;SDS011;10712;52.944;9.098;2023-11-21T02:50:14;37.47;;;19.95;;
21107;SDS011;10712;52.944;9.098;2023-11-21T02:52:39;33.58;;;19.50;;
21107;SDS011;10712;52.944;9.098;2023-11-21T02:55:05;33.45;;;18.48;;
21107;SDS011;10712;52.944;9.098;2023-11-21T02:57:34;28.38;;;17.55;;
21107;SDS011;10712;52.944;9.098;2023-11-21T03:00:00;24.20;;;16.15;;
21107;SDS011;10712;52.944;9.098;2023-11-21T03:02:27;29.00;;;18.20;;
21107;SDS011;10712;52.944;9.098;2023-11-21T03:04:53;26.90;;;18.23;;
21107;SDS011;10712;52.944;9.098;2023-11-21T03:07:19;24.48;;;16.85;;
21107;SDS011;10712;52.944;9.098;2023-11-21T03:09:45;27.38;;;15.95;;
21107;SDS011;10712;52.944;9.098;2023-11-21T03:12:11;24.20;;;14.20;;
21107;SDS011;10712;52.944;9.098;2023-11-21T03:14:37;22.73;;;14.20;;
21107;SDS011;10712;52.944;9.098;2023-11-21T03:17:05;21.85;;;13.85;;
21107;SDS011;10712;52.944;9.098;2023-11-21T03:19:31;17.90;;;13.60;;
21107;SDS011;10712;52.944;9.098;2023-11-21T03:21:57;24.88;;;14.07;;
21107;SDS011;10712;52.944;9.098;2023-11-21T03:24:24;18.88;;;11.90;;
21107;SDS011;10712;52.944;9.098;2023-11-21T03:26:51;22.48;;;12.73;;
21107;SDS011;10712;52.944;9.098;2023-11-21T03:29:17;21.65;;;12.13;;
21107;SDS011;10712;52.944;9.098;2023-11-21T03:31:43;15.40;;;11.52;;
21107;SDS011;10712;52.944;9.098;2023-11-21T03:34:14;13.50;;;10.07;;
21107;SDS011;10712;52.944;9.098;2023-11-21T03:36:45;14.07;;;9.52;;
21107;SDS011;10712;52.944;9.098;2023-11-21T03:39:11;12.98;;;8.95;;
21107;SDS011;10712;52.944;9.098;2023-11-21T03:41:37;12.70;;;8.30;;
21107;SDS011;10712;52.944;9.098;2023-11-21T03:44:03;9.25;;;5.97;;
21107;SDS011;10712;52.944;9.098;2023-11-21T03:46:29;6.85;;;5.38;;
21107;SDS011;10712;52.944;9.098;2023-11-21T03:48:55;8.93;;;4.63;;
21107;SDS011;10712;52.944;9.098;2023-11-21T03:51:20;6.15;;;4.88;;
21107;SDS011;10712;52.944;9.098;2023-11-21T03:53:46;5.85;;;4.70;;
21107;SDS011;10712;52.944;9.098;2023-11-21T03:56:13;8.50;;;5.03;;
21107;SDS011;10712;52.944;9.098;2023-11-21T03:58:39;10.18;;;4.70;;
21107;SDS011;10712;52.944;9.098;2023-11-21T04:01:05;9.75;;;5.57;;
21107;SDS011;10712;52.944;9.098;2023-11-21T04:03:31;8.80;;;4.60;;
21107;SDS011;10712;52.944;9.098;2023-11-21T04:05:57;7.80;;;4.72;;
21107;SDS011;10712;52.944;9.098;2023-11-21T04:08:23;8.15;;;4.90;;
21107;SDS011;10712;52.944;9.098;2023-11-21T04:10:48;7.72;;;4.82;;
21107;SDS011;10712;52.944;9.098;2023-11-21T04:13:14;11.30;;;5.13;;
21107;SDS011;10712;52.944;9.098;2023-11-21T04:15:40;5.33;;;4.40;;
21107;SDS011;10712;52.944;9.098;2023-11-21T04:18:06;7.78;;;4.80;;
21107;SDS011;10712;52.944;9.098;2023-11-21T04:20:31;5.05;;;4.55;;
21107;SDS011;10712;52.944;9.098;2023-11-21T04:22:57;16.17;;;4.43;;
21107;SDS011;10712;52.944;9.098;2023-11-21T04:25:23;6.88;;;4.30;;
21107;SDS011;10712;52.944;9.098;2023-11-21T04:27:49;4.63;;;4.07;;
21107;SDS011;10712;52.944;9.098;2023-11-21T04:30:15;5.72;;;4.18;;
21107;SDS011;10712;52.944;9.098;2023-11-21T04:32:41;8.75;;;4.28;;
21107;SDS011;10712;52.944;9.098;2023-11-21T04:35:07;8.63;;;4.30;;
21107;SDS011;10712;52.944;9.098;2023-11-21T04:37:33;10.30;;;4.45;;
21107;SDS011;10712;52.944;9.098;2023-11-21T04:39:59;9.95;;;3.67;;
21107;SDS011;10712;52.944;9.098;2023-11-21T04:42:25;9.20;;;6.30;;
21107;SDS011;10712;52.944;9.098;2023-11-21T04:44:51;7.40;;;5.05;;
21107;SDS011;10712;52.944;9.098;2023-11-21T04:47:18;13.43;;;6.35;;
21107;SDS011;10712;52.944;9.098;2023-11-21T04:49:45;9.45;;;6.00;;
21107;SDS011;10712;52.944;9.098;2023-11-21T04:52:14;12.70;;;7.18;;
21107;SDS011;10712;52.944;9.098;2023-11-21T04:54:40;8.77;;;6.38;;
21107;SDS011;10712;52.944;9.098;2023-11-21T04:57:06;6.53;;;5.28;;
21107;SDS011;10712;52.944;9.098;2023-11-21T04:59:35;7.80;;;5.53;;
21107;SDS011;10712;52.944;9.098;2023-11-21T05:02:01;7.03;;;5.82;;
21107;SDS011;10712;52.944;9.098;2023-11-21T05:04:27;11.98;;;5.55;;
21107;SDS011;10712;52.944;9.098;2023-11-21T05:06:53;8.07;;;6.22;;
21107;SDS011;10712;52.944;9.098;2023-11-21T05:09:18;10.18;;;6.25;;
21107;SDS011;10712;52.944;9.098;2023-11-21T05:11:44;12.73;;;6.43;;
21107;SDS011;10712;52.944;9.098;2023-11-21T05:14:10;13.57;;;7.35;;
21107;SDS011;10712;52.944;9.098;2023-11-21T05:16:36;16.70;;;6.35;;
21107;SDS011;10712;52.944;9.098;2023-11-21T05:19:03;10.07;;;6.55;;
21107;SDS011;10712;52.944;9.098;2023-11-21T05:21:29;8.30;;;7.07;;
21107;SDS011;10712;52.944;9.098;2023-11-21T05:23:58;15.52;;;6.78;;
21107;SDS011;10712;52.944;9.098;2023-11-21T05:26:24;9.48;;;7.43;;
21107;SDS011;10712;52.944;9.098;2023-11-21T05:28:50;17.48;;;6.68;;
21107;SDS011;10712;52.944;9.098;2023-11-21T05:31:16;9.40;;;7.28;;
21107;SDS011;10712;52.944;9.098;2023-11-21T05:33:41;10.68;;;7.85;;
21107;SDS011;10712;52.944;9.098;2023-11-21T05:36:07;12.65;;;7.57;;
21107;SDS011;10712;52.944;9.098;2023-11-21T05:38:35;11.95;;;8.23;;
21107;SDS011;10712;52.944;9.098;2023-11-21T05:41:02;12.65;;;7.45;;
21107;SDS011;10712;52.944;9.098;2023-11-21T05:43:29;16.33;;;7.57;;
21107;SDS011;10712;52.944;9.098;2023-11-21T05:45:57;8.57;;;7.13;;
21107;SDS011;10712;52.944;9.098;2023-11-21T05:48:23;9.88;;;7.30;;
21107;SDS011;10712;52.944;9.098;2023-11-21T05:50:50;18.95;;;7.90;;
21107;SDS011;10712;52.944;9.098;2023-11-21T05:53:16;12.35;;;8.07;;
21107;SDS011;10712;52.944;9.098;2023-11-21T05:55:42;9.98;;;8.05;;
21107;SDS011;10712;52.944;9.098;2023-11-21T05:58:08;9.38;;;7.53;;
21107;SDS011;10712;52.944;9.098;2023-11-21T06:00:34;10.32;;;8.32;;
21107;SDS011;10712;52.944;9.098;2023-11-21T06:03:01;13.93;;;8.65;;
21107;SDS011;10712;52.944;9.098;2023-11-21T06:05:27;9.40;;;7.80;;
21107;SDS011;10712;52.944;9.098;2023-11-21T06:07:53;16.42;;;8.65;;
21107;SDS011;10712;52.944;9.098;2023-11-21T06:10:23;14.40;;;8.53;;
21107;SDS011;10712;52.944;9.098;2023-11-21T06:12:50;11.07;;;8.88;;
21107;SDS011;10712;52.944;9.098;2023-11-21T06:15:16;13.13;;;8.50;;
21107;SDS011;10712;52.944;9.098;2023-11-21T06:17:44;20.08;;;8.98;;
21107;SDS011;10712;52.944;9.098;2023-11-21T06:20:14;18.65;;;8.40;;
21107;SDS011;10712;52.944;9.098;2023-11-21T06:22:43;11.70;;;8.95;;
21107;SDS011;10712;52.944;9.098;2023-11-21T06:25:11;15.27;;;9.73;;
21107;SDS011;10712;52.944;9.098;2023-11-21T06:27:39;17.00;;;10.02;;
21107;SDS011;10712;52.944;9.098;2023-11-21T06:30:10;11.80;;;9.57;;
21107;SDS011;10712;52.944;9.098;2023-11-21T06:32:38;21.67;;;9.55;;
21107;SDS011;10712;52.944;9.098;2023-11-21T06:35:05;15.90;;;9.55;;
21107;SDS011;10712;52.944;9.098;2023-11-21T06:37:33;16.27;;;10.60;;
21107;SDS011;10712;52.944;9.098;2023-11-21T06:40:00;15.52;;;9.70;;
21107;SDS011;10712;52.944;9.098;2023-11-21T06:42:28;15.03;;;9.83;;
21107;SDS011;10712;52.944;9.098;2023-11-21T06:44:55;15.38;;;9.77;;
21107;SDS011;10712;52.944;9.098;2023-11-21T06:47:24;12.00;;;9.80;;
21107;SDS011;10712;52.944;9.098;2023-11-21T06:49:51;15.13;;;10.20;;
21107;SDS011;10712;52.944;9.098;2023-11-21T06:52:20;17.17;;;10.52;;
21107;SDS011;10712;52.944;9.098;2023-11-21T06:54:46;20.77;;;10.85;;
21107;SDS011;10712;52.944;9.098;2023-11-21T06:57:14;18.85;;;10.70;;
21107;SDS011;10712;52.944;9.098;2023-11-21T06:59:40;17.65;;;10.63;;
21107;SDS011;10712;52.944;9.098;2023-11-21T07:02:06;17.10;;;10.02;;
21107;SDS011;10712;52.944;9.098;2023-11-21T07:04:33;19.67;;;10.18;;
21107;SDS011;10712;52.944;9.098;2023-11-21T07:06:59;14.95;;;9.70;;
21107;SDS011;10712;52.944;9.098;2023-11-21T07:09:25;15.80;;;10.77;;
21107;SDS011;10712;52.944;9.098;2023-11-21T07:11:51;16.58;;;10.48;;
21107;SDS011;10712;52.944;9.098;2023-11-21T07:14:17;17.02;;;11.15;;
21107;SDS011;10712;52.944;9.098;2023-11-21T07:16:45;15.98;;;10.50;;
21107;SDS011;10712;52.944;9.098;2023-11-21T07:19:11;20.35;;;11.10;;
21107;SDS011;10712;52.944;9.098;2023-11-21T07:21:37;12.73;;;9.98;;
21107;SDS011;10712;52.944;9.098;2023-11-21T07:24:05;25.08;;;10.73;;
21107;SDS011;10712;52.944;9.098;2023-11-21T07:26:32;13.35;;;10.50;;
21107;SDS011;10712;52.944;9.098;2023-11-21T07:29:00;61.45;;;42.65;;
21107;SDS011;10712;52.944;9.098;2023-11-21T07:31:27;20.08;;;13.75;;
21107;SDS011;10712;52.944;9.098;2023-11-21T07:33:54;20.13;;;10.07;;
21107;SDS011;10712;52.944;9.098;2023-11-21T07:36:23;14.32;;;10.50;;
21107;SDS011;10712;52.944;9.098;2023-11-21T07:38:49;11.63;;;9.20;;
21107;SDS011;10712;52.944;9.098;2023-11-21T07:41:16;19.92;;;10.10;;
21107;SDS011;10712;52.944;9.098;2023-11-21T07:43:43;16.52;;;9.57;;
21107;SDS011;10712;52.944;9.098;2023-11-21T07:46:10;18.10;;;9.95;;
21107;SDS011;10712;52.944;9.098;2023-11-21T07:48:41;27.90;;;10.87;;
21107;SDS011;10712;52.944;9.098;2023-11-21T07:51:08;13.77;;;9.90;;
21107;SDS011;10712;52.944;9.098;2023-11-21T07:53:35;18.63;;;10.90;;
21107;SDS011;10712;52.944;9.098;2023-11-21T07:56:05;14.95;;;10.63;;
21107;SDS011;10712;52.944;9.098;2023-11-21T07:58:35;16.73;;;10.18;;
21107;SDS011;10712;52.944;9.098;2023-11-21T08:01:02;18.67;;;10.93;;
21107;SDS011;10712;52.944;9.098;2023-11-21T08:03:29;25.90;;;11.90;;
21107;SDS011;10712;52.944;9.098;2023-11-21T08:05:56;17.83;;;11.60;;
21107;SDS011;10712;52.944;9.098;2023-11-21T08:08:23;14.48;;;10.73;;
21107;SDS011;10712;52.944;9.098;2023-11-21T08:10:49;19.33;;;11.40;;
21107;SDS011;10712;52.944;9.098;2023-11-21T08:13:27;14.25;;;11.32;;
21107;SDS011;10712;52.944;9.098;2023-11-21T08:15:56;21.00;;;11.00;;
21107;SDS011;10712;52.944;9.098;2023-11-21T08:18:32;58.10;;;38.23;;
21107;SDS011;10712;52.944;9.098;2023-11-21T08:20:59;19.52;;;14.77;;
21107;SDS011;10712;52.944;9.098;2023-11-21T08:23:25;21.75;;;12.75;;
21107;SDS011;10712;52.944;9.098;2023-11-21T08:25:52;20.92;;;11.32;;
21107;SDS011;10712;52.944;9.098;2023-11-21T08:28:19;18.08;;;10.80;;
21107;SDS011;10712;52.944;9.098;2023-11-21T08:30:47;13.73;;;11.45;;
21107;SDS011;10712;52.944;9.098;2023-11-21T08:33:13;14.02;;;10.57;;
21107;SDS011;10712;52.944;9.098;2023-11-21T08:35:39;18.10;;;11.98;;
21107;SDS011;10712;52.944;9.098;2023-11-21T08:38:05;25.98;;;12.35;;
21107;SDS011;10712;52.944;9.098;2023-11-21T08:40:31;17.02;;;13.93;;
21107;SDS011;10712;52.944;9.098;2023-11-21T08:42:57;23.85;;;11.50;;
21107;SDS011;10712;52.944;9.098;2023-11-21T08:45:24;14.73;;;10.75;;
21107;SDS011;10712;52.944;9.098;2023-11-21T08:47:54;54.17;;;13.88;;
21107;SDS011;10712;52.944;9.098;2023-11-21T08:50:19;22.80;;;11.50;;
21107;SDS011;10712;52.944;9.098;2023-11-21T08:52:45;14.85;;;10.57;;
21107;SDS011;10712;52.944;9.098;2023-11-21T08:55:12;15.32;;;10.15;;
21107;SDS011;10712;52.944;9.098;2023-11-21T08:57:38;28.00;;;20.23;;
21107;SDS011;10712;52.944;9.098;2023-11-21T09:00:07;24.25;;;18.02;;
21107;SDS011;10712;52.944;9.098;2023-11-21T09:02:36;17.52;;;10.90;;
21107;SDS011;10712;52.944;9.098;2023-11-21T09:05:08;14.52;;;9.70;;
21107;SDS011;10712;52.944;9.098;2023-11-21T09:07:36;22.70;;;10.10;;
21107;SDS011;10712;52.944;9.098;2023-11-21T09:10:04;17.58;;;9.95;;
21107;SDS011;10712;52.944;9.098;2023-11-21T09:12:34;20.52;;;11.38;;
21107;SDS011;10712;52.944;9.098;2023-11-21T09:15:03;12.50;;;10.10;;
21107;SDS011;10712;52.944;9.098;2023-11-21T09:17:34;17.67;;;10.25;;
21107;SDS011;10712;52.944;9.098;2023-11-21T09:20:01;14.85;;;9.75;;
21107;SDS011;10712;52.944;9.098;2023-11-21T09:22:30;18.83;;;10.45;;
21107;SDS011;10712;52.944;9.098;2023-11-21T09:24:57;14.00;;;10.40;;
21107;SDS011;10712;52.944;9.098;2023-11-21T09:27:23;32.55;;;21.65;;
21107;SDS011;10712;52.944;9.098;2023-11-21T09:29:50;19.85;;;14.57;;
21107;SDS011;10712;52.944;9.098;2023-11-21T09:32:18;22.35;;;10.38;;
21107;SDS011;10712;52.944;9.098;2023-11-21T09:34:44;13.18;;;10.43;;
21107;SDS011;10712;52.944;9.098;2023-11-21T09:37:10;14.70;;;10.40;;
21107;SDS011;10712;52.944;9.098;2023-11-21T09:39:36;17.55;;;11.70;;
21107;SDS011;10712;52.944;9.098;2023-11-21T09:42:04;17.98;;;10.45;;
21107;SDS011;10712;52.944;9.098;2023-11-21T09:44:36;22.85;;;11.05;;
21107;SDS011;10712;52.944;9.098;2023-11-21T09:47:26;14.32;;;10.13;;
21107;SDS011;10712;52.944;9.098;2023-11-21T09:49:53;16.45;;;9.93;;
21107;SDS011;10712;52.944;9.098;2023-11-21T09:52:26;15.35;;;9.75;;
21107;SDS011;10712;52.944;9.098;2023-11-21T09:54:54;16.15;;;9.25;;
21107;SDS011;10712;52.944;9.098;2023-11-21T09:57:23;15.55;;;9.57;;
21107;SDS011;10712;52.944;9.098;2023-11-21T09:59:51;17.05;;;10.35;;
21107;SDS011;10712;52.944;9.098;2023-11-21T10:02:26;12.18;;;8.60;;
21107;SDS011;10712;52.944;9.098;2023-11-21T10:04:56;19.73;;;9.98;;
21107;SDS011;10712;52.944;9.098;2023-11-21T10:07:22;12.48;;;9.30;;
21107;SDS011;10712;52.944;9.098;2023-11-21T10:09:49;19.15;;;9.93;;
21107;SDS011;10712;52.944;9.098;2023-11-21T10:12:18;34.15;;;10.07;;
21107;SDS011;10712;52.944;9.098;2023-11-21T10:14:48;19.20;;;9.55;;
21107;SDS011;10712;52.944;9.098;2023-11-21T10:17:17;30.13;;;21.95;;
21107;SDS011;10712;52.944;9.098;2023-11-21T10:19:47;15.02;;;10.70;;
21107;SDS011;10712;52.944;9.098;2023-11-21T10:22:14;15.88;;;9.35;;
21107;SDS011;10712;52.944;9.098;2023-11-21T10:24:41;12.93;;;9.65;;
21107;SDS011;10712;52.944;9.098;2023-11-21T10:27:08;14.30;;;9.43;;
21107;SDS011;10712;52.944;9.098;2023-11-21T10:29:34;21.50;;;9.70;;
21107;SDS011;10712;52.944;9.098;2023-11-21T10:32:03;20.60;;;10.13;;
21107;SDS011;10712;52.944;9.098;2023-11-21T10:34:30;11.93;;;9.35;;
21107;SDS011;10712;52.944;9.098;2023-11-21T10:36:57;13.32;;;9.38;;
21107;SDS011;10712;52.944;9.098;2023-11-21T10:39:23;9.50;;;8.20;;
21107;SDS011;10712;52.944;9.098;2023-11-21T10:41:54;15.68;;;9.05;;
21107;SDS011;10712;52.944;9.098;2023-11-21T10:44:20;12.77;;;8.75;;
21107;SDS011;10712;52.944;9.098;2023-11-21T10:46:48;12.10;;;9.10;;
21107;SDS011;10712;52.944;9.098;2023-11-21T10:49:22;17.23;;;9.95;;
21107;SDS011;10712;52.944;9.098;2023-11-21T10:51:50;20.73;;;10.23;;
21107;SDS011;10712;52.944;9.098;2023-11-21T10:54:22;12.10;;;9.32;;
21107;SDS011;10712;52.944;9.098;2023-11-21T10:59:22;24.33;;;9.70;;
21107;SDS011;10712;52.944;9.098;2023-11-21T11:01:50;16.48;;;9.35;;
21107;SDS011;10712;52.944;9.098;2023-11-21T11:04:18;16.05;;;10.93;;
21107;SDS011;10712;52.944;9.098;2023-11-21T11:06:51;14.07;;;9.45;;
21107;SDS011;10712;52.944;9.098;2023-11-21T11:09:22;30.40;;;9.82;;
21107;SDS011;10712;52.944;9.098;2023-11-21T11:11:48;13.38;;;9.73;;
21107;SDS011;10712;52.944;9.098;2023-11-21T11:14:16;30.80;;;9.85;;
21107;SDS011;10712;52.944;9.098;2023-11-21T11:16:45;15.65;;;9.77;;
21107;SDS011;10712;52.944;9.098;2023-11-21T11:19:11;18.55;;;11.13;;
21107;SDS011;10712;52.944;9.098;2023-11-21T11:21:46;12.90;;;9.70;;
21107;SDS011;10712;52.944;9.098;2023-11-21T11:24:40;20.10;;;10.40;;
21107;SDS011;10712;52.944;9.098;2023-11-21T11:33:25;12.27;;;9.95;;
21107;SDS011;10712;52.944;9.098;2023-11-21T11:38:56;15.93;;;8.98;;
21107;SDS011;10712;52.944;9.098;2023-11-21T11:41:25;13.15;;;8.65;;
21107;SDS011;10712;52.944;9.098;2023-11-21T11:43:59;13.52;;;9.50;;
21107;SDS011;10712;52.944;9.098;2023-11-21T11:46:44;17.73;;;10.93;;
21107;SDS011;10712;52.944;9.098;2023-11-21T11:49:23;16.67;;;10.35;;
21107;SDS011;10712;52.944;9.098;2023-11-21T11:54:59;11.63;;;8.63;;
21107;SDS011;10712;52.944;9.098;2023-11-21T11:57:31;15.80;;;8.77;;
21107;SDS011;10712;52.944;9.098;2023-11-21T12:00:21;9.85;;;8.30;;
21107;SDS011;10712;52.944;9.098;2023-11-21T12:02:52;18.30;;;8.80;;
21107;SDS011;10712;52.944;9.098;2023-11-21T12:05:24;12.23;;;8.05;;
21107;SDS011;10712;52.944;9.098;2023-11-21T12:07:58;15.75;;;8.68;;
21107;SDS011;10712;52.944;9.098;2023-11-21T12:10:28;13.00;;;8.07;;
21107;SDS011;10712;52.944;9.098;2023-11-21T12:13:09;12.70;;;9.77;;
21107;SDS011;10712;52.944;9.098;2023-11-21T12:15:37;10.15;;;7.97;;
21107;SDS011;10712;52.944;9.098;2023-11-21T12:18:03;14.27;;;8.27;;
21107;SDS011;10712;52.944;9.098;2023-11-21T12:20:30;14.23;;;7.85;;
21107;SDS011;10712;52.944;9.098;2023-11-21T12:22:58;12.40;;;6.90;;
21107;SDS011;10712;52.944;9.098;2023-11-21T12:25:26;19.08;;;7.28;;
21107;SDS011;10712;52.944;9.098;2023-11-21T12:27:54;10.35;;;7.32;;
21107;SDS011;10712;52.944;9.098;2023-11-21T12:30:23;18.08;;;7.78;;
21107;SDS011;10712;52.944;9.098;2023-11-21T12:32:56;17.17;;;7.07;;
21107;SDS011;10712;52.944;9.098;2023-11-21T12:35:25;9.07;;;7.10;;
21107;SDS011;10712;52.944;9.098;2023-11-21T12:37:54;9.18;;;7.53;;
21107;SDS011;10712;52.944;9.098;2023-11-21T12:40:24;10.05;;;7.38;;
21107;SDS011;10712;52.944;9.098;2023-11-21T12:42:53;8.63;;;6.78;;
21107;SDS011;10712;52.944;9.098;2023-11-21T12:45:23;10.60;;;6.70;;
21107;SDS011;10712;52.944;9.098;2023-11-21T12:50:33;13.02;;;6.20;;
21107;SDS011;10712;52.944;9.098;2023-11-21T12:53:05;17.20;;;6.70;;
21107;SDS011;10712;52.944;9.098;2023-11-21T12:55:34;25.30;;;7.32;;
21107;SDS011;10712;52.944;9.098;2023-11-21T12:58:04;9.32;;;7.03;;
21107;SDS011;10712;52.944;9.098;2023-11-21T13:00:39;8.23;;;6.97;;
21107;SDS011;10712;52.944;9.098;2023-11-21T13:03:10;15.48;;;7.60;;
21107;SDS011;10712;52.944;9.098;2023-11-21T13:05:42;15.20;;;7.78;;
21107;SDS011;10712;52.944;9.098;2023-11-21T13:08:11;10.70;;;6.38;;
21107;SDS011;10712;52.944;9.098;2023-11-21T13:10:39;15.57;;;7.38;;
21107;SDS011;10712;52.944;9.098;2023-11-21T13:13:09;17.65;;;7.60;;
21107;SDS011;10712;52.944;9.098;2023-11-21T13:15:46;18.03;;;8.30;;
21107;SDS011;10712;52.944;9.098;2023-11-21T13:18:18;8.05;;;7.20;;
21107;SDS011;10712;52.944;9.098;2023-11-21T13:20:46;9.27;;;7.65;;
21107;SDS011;10712;52.944;9.098;2023-11-21T13:23:13;9.90;;;7.90;;
21107;SDS011;10712;52.944;9.098;2023-11-21T13:25:41;19.02;;;7.22;;
21107;SDS011;10712;52.944;9.098;2023-11-21T13:28:10;9.05;;;6.97;;
21107;SDS011;10712;52.944;9.098;2023-11-21T13:30:40;8.93;;;7.13;;
21107;SDS011;10712;52.944;9.098;2023-11-21T13:33:07;10.32;;;6.00;;
21107;SDS011;10712;52.944;9.098;2023-11-21T13:35:35;7.40;;;6.47;;
21107;SDS011;10712;52.944;9.098;2023-11-21T13:38:10;13.35;;;6.65;;
21107;SDS011;10712;52.944;9.098;2023-11-21T13:40:38;31.40;;;8.10;;
21107;SDS011;10712;52.944;9.098;2023-11-21T13:43:10;12.52;;;6.70;;
21107;SDS011;10712;52.944;9.098;2023-11-21T13:45:42;7.15;;;5.80;;
21107;SDS011;10712;52.944;9.098;2023-11-21T13:48:10;10.77;;;6.13;;
21107;SDS011;10712;52.944;9.098;2023-11-21T13:50:42;13.73;;;6.25;;
21107;SDS011;10712;52.944;9.098;2023-11-21T13:53:28;12.32;;;5.80;;
21107;SDS011;10712;52.944;9.098;2023-11-21T13:55:54;8.80;;;5.25;;
21107;SDS011;10712;52.944;9.098;2023-11-21T13:58:22;5.43;;;4.72;;
21107;SDS011;10712;52.944;9.098;2023-11-21T14:01:00;6.35;;;4.88;;
21107;SDS011;10712;52.944;9.098;2023-11-21T14:03:26;9.88;;;5.05;;
21107;SDS011;10712;52.944;9.098;2023-11-21T14:06:12;9.40;;;5.15;;
21107;SDS011;10712;52.944;9.098;2023-11-21T14:08:45;12.82;;;4.70;;
21107;SDS011;10712;52.944;9.098;2023-11-21T14:11:12;15.73;;;5.18;;
21107;SDS011;10712;52.944;9.098;2023-11-21T14:13:42;10.45;;;5.05;;
21107;SDS011;10712;52.944;9.098;2023-11-21T14:16:12;10.25;;;4.50;;
21107;SDS011;10712;52.944;9.098;2023-11-21T14:18:39;8.85;;;5.07;;
21107;SDS011;10712;52.944;9.098;2023-11-21T14:21:17;5.78;;;4.57;;
21107;SDS011;10712;52.944;9.098;2023-11-21T14:23:44;7.15;;;4.97;;
21107;SDS011;10712;52.944;9.098;2023-11-21T14:26:11;7.18;;;5.15;;
21107;SDS011;10712;52.944;9.098;2023-11-21T14:28:41;17.88;;;4.65;;
21107;SDS011;10712;52.944;9.098;2023-11-21T14:31:07;13.13;;;4.32;;
21107;SDS011;10712;52.944;9.098;2023-11-21T14:33:38;9.50;;;5.00;;
21107;SDS011;10712;52.944;9.098;2023-11-21T14:36:05;6.25;;;4.45;;
21107;SDS011;10712;52.944;9.098;2023-11-21T14:38:35;11.93;;;4.53;;
21107;SDS011;10712;52.944;9.098;2023-11-21T14:41:04;10.55;;;4.40;;
21107;SDS011;10712;52.944;9.098;2023-11-21T14:43:34;6.90;;;4.72;;
21107;SDS011;10712;52.944;9.098;2023-11-21T14:46:01;6.00;;;4.10;;
21107;SDS011;10712;52.944;9.098;2023-11-21T14:48:29;4.57;;;4.13;;
21107;SDS011;10712;52.944;9.098;2023-11-21T14:51:10;6.15;;;3.67;;
21107;SDS011;10712;52.944;9.098;2023-11-21T14:54:09;4.60;;;4.13;;